Terminal Aerodrome Forecast
Issued by NWS Portland, ME

Home | Current Version | Previous Version | Text Only | Print | Product List | Glossary On
Versions: 1 2 3 4 5 6 7 8 9 10 11 12 13 14 15 16 17
000
FTUS41 KGYX 050520
TAFCON
TAF
KCON 050520Z 0506/0606 00000KT P6SM SKC
     FM050900 00000KT P6SM BKN050 OVC100
     FM051200 VRB03KT 1SM -SN BR OVC015
     FM052200 32006KT 5SM BR BKN025 OVC040
     FM060000 30006KT P6SM OVC250=

USA.gov is the U.S. government's official web portal to all federal, state and local government web resources and services.